Time;durP1;ratioP1;P1;durP2;ratioP2;P2;SDS_P1;SDS_P2;PMS_P1;PMS_P2;Temp;Humidity;BMP_temperature;BMP_pressure;BME280_temperature;BME280_humidity;BME280_pressure;Samples;Min_cycle;Max_cycle;Signal;HPM_P1;HPM_P2
2022/10/28 00:00:48;;;;;;;9.50;4.68;;;;;;;22.34;66.05;99806.00;2074559;28;20431;-51
2022/10/28 00:01:49;;;;;;;7.65;4.53;;;;;;;22.34;66.06;99803.31;2072344;28;20072;-52
2022/10/28 00:02:52;;;;;;;5.63;3.42;;;;;;;22.34;66.25;99799.78;2074107;28;20669;-49
2022/10/28 00:03:55;;;;;;;9.27;4.35;;;;;;;22.33;66.16;99800.81;2072311;28;20056;-52
2022/10/28 00:04:56;;;;;;;5.72;4.25;;;;;;;22.33;66.09;99796.25;2073866;28;20542;-52
2022/10/28 00:06:01;;;;;;;6.00;4.32;;;;;;;22.35;66.15;99802.28;2073912;28;20516;-51
2022/10/28 00:07:03;;;;;;;7.45;3.45;;;;;;;22.34;66.35;99802.47;2071074;28;20064;-52
2022/10/28 00:08:05;;;;;;;7.80;4.38;;;;;;;22.33;66.19;99804.34;2067045;28;20046;-50
2022/10/28 00:09:06;;;;;;;6.72;3.97;;;;;;;22.33;66.16;99804.34;2074463;28;20041;-52
2022/10/28 00:10:08;;;;;;;6.97;3.50;;;;;;;22.33;66.13;99807.06;2073098;28;20053;-51
2022/10/28 00:11:11;;;;;;;6.65;3.63;;;;;;;22.34;66.10;99797.91;2074870;28;20049;-51
2022/10/28 00:12:12;;;;;;;7.65;4.57;;;;;;;22.34;66.01;99808.72;2074696;28;20685;-50
2022/10/28 00:13:14;;;;;;;8.02;4.40;;;;;;;22.34;66.20;99805.19;2075668;28;20056;-50
2022/10/28 00:14:15;;;;;;;6.20;4.07;;;;;;;22.34;66.12;99802.47;2075572;28;20045;-48
2022/10/28 00:15:16;;;;;;;8.13;4.10;;;;;;;22.33;65.93;99807.06;2075734;28;20052;-52
2022/10/28 00:16:19;;;;;;;6.95;3.85;;;;;;;22.33;66.11;99807.06;2075290;28;20524;-47
2022/10/28 00:17:21;;;;;;;8.13;3.67;;;;;;;22.33;66.01;99800.81;2068131;28;20060;-47
2022/10/28 00:18:23;;;;;;;5.43;3.85;;;;;;;22.33;66.00;99801.66;2073514;28;21877;-51
2022/10/28 00:19:25;;;;;;;6.20;4.18;;;;;;;22.35;66.12;99798.75;2071531;28;20124;-48
2022/10/28 00:20:26;;;;;;;6.78;4.05;;;;;;;22.35;66.03;99799.59;2075162;28;20493;-49
2022/10/28 00:21:29;;;;;;;4.75;3.63;;;;;;;22.35;65.97;99798.75;2074007;28;20048;-51
2022/10/28 00:22:30;;;;;;;5.57;3.25;;;;;;;22.34;65.85;99797.91;2068526;28;20056;-49
2022/10/28 00:23:32;;;;;;;6.97;4.13;;;;;;;22.33;66.09;99800.81;2073919;28;20048;-54
2022/10/28 00:24:32;;;;;;;5.70;3.88;;;;;;;22.33;65.98;99800.81;2073857;28;20037;-50
2022/10/28 00:25:34;;;;;;;5.78;3.25;;;;;;;22.33;65.94;99801.66;2075660;28;20113;-51
2022/10/28 00:26:37;;;;;;;6.97;3.70;;;;;;;22.33;66.00;99796.25;2071920;28;20705;-51
2022/10/28 00:27:39;;;;;;;5.53;3.88;;;;;;;22.33;66.05;99796.25;2073298;28;20084;-52
2022/10/28 00:28:41;;;;;;;6.38;3.53;;;;;;;22.34;66.04;99795.19;2073344;28;20049;-49
2022/10/28 00:29:43;;;;;;;6.13;3.90;;;;;;;22.31;66.09;99803.72;2073558;28;20148;-50
2022/10/28 00:30:44;;;;;;;9.68;3.65;;;;;;;22.31;65.96;99792.91;2074300;28;20045;-48
2022/10/28 00:31:46;;;;;;;7.68;4.43;;;;;;;22.32;65.85;99794.59;2072246;28;20771;-50
2022/10/28 00:32:47;;;;;;;7.28;3.75;;;;;;;22.31;65.94;99795.59;2075116;28;20053;-48
2022/10/28 00:33:50;;;;;;;5.53;3.30;;;;;;;22.32;65.94;99789.19;2069705;28;20049;-51
2022/10/28 00:34:51;;;;;;;7.78;4.93;;;;;;;22.31;65.97;99787.50;2074191;28;20657;-50
2022/10/28 00:35:53;;;;;;;;;;;;;;;22.23;66.37;99795.75;2075000;28;20056;-50
2022/10/28 00:36:54;;;;;;;;;;;;;;;22.13;66.45;99792.56;2072550;28;19936;-49
2022/10/28 00:37:55;;;;;;;5.68;3.92;;;;;;;22.19;66.42;99791.81;2068188;28;19928;-50
2022/10/28 00:38:58;;;;;;;6.15;3.20;;;;;;;22.24;66.29;99792.06;2073826;28;20111;-52
2022/10/28 00:39:58;;;;;;;5.57;4.13;;;;;;;22.27;66.21;99788.94;2074325;28;20652;-51
2022/10/28 00:41:00;;;;;;;5.35;3.53;;;;;;;22.28;66.24;99787.91;2075690;28;20066;-50
2022/10/28 00:42:03;;;;;;;8.30;4.00;;;;;;;22.29;66.03;99787.72;2073853;28;20049;-52
2022/10/28 00:43:03;;;;;;;3.92;3.33;;;;;;;22.28;66.01;99782.50;2073942;28;20532;-51
2022/10/28 00:44:35;;;;;;;4.88;3.78;;;;;;;22.27;65.98;99781.66;2075165;28;20052;-48
2022/10/28 00:45:36;;;;;;;5.93;3.60;;;;;;;22.25;66.21;99778.31;2058618;28;20095;-52
2022/10/28 00:46:42;;;;;;;5.30;3.97;;;;;;;22.27;66.30;99780.84;2076071;28;20049;-49
2022/10/28 00:47:50;;;;;;;4.95;4.07;;;;;;;22.29;66.10;99773.38;2073286;28;20049;-50
2022/10/28 00:48:58;;;;;;;6.03;3.78;;;;;;;22.28;65.97;99777.09;2075511;28;20519;-50
2022/10/28 00:50:10;;;;;;;6.80;4.00;;;;;;;22.29;65.98;99784.19;2072633;28;20045;-49
2022/10/28 00:51:15;;;;;;;6.00;3.00;;;;;;;22.29;65.95;99776.91;2074621;28;20776;-49
2022/10/28 00:52:20;;;;;;;5.72;3.35;;;;;;;22.29;65.90;99790.41;2060892;28;20045;-50
2022/10/28 00:53:26;;;;;;;6.47;4.22;;;;;;;22.28;65.91;99772.50;2069025;28;20058;-48
2022/10/28 00:54:27;;;;;;;4.38;3.53;;;;;;;22.29;65.90;99784.19;2072659;28;20052;-49
2022/10/28 00:55:29;;;;;;;5.53;4.25;;;;;;;22.28;65.99;99780.63;2075266;28;20079;-51
2022/10/28 00:56:34;;;;;;;6.32;4.20;;;;;;;22.29;66.32;99784.19;2074314;28;20390;-50
2022/10/28 00:57:37;;;;;;;5.50;3.53;;;;;;;22.30;66.09;99777.72;2074896;28;20069;-50
2022/10/28 00:58:39;;;;;;;4.82;3.63;;;;;;;22.28;66.13;99779.78;2068474;28;20056;-51
2022/10/28 00:59:44;;;;;;;5.03;3.80;;;;;;;22.28;65.85;99775.22;2072173;28;20046;-50
2022/10/28 01:00:46;;;;;;;6.55;4.03;;;;;;;22.27;66.15;99780.84;2073708;28;20813;-49
2022/10/28 01:01:47;;;;;;;7.38;3.45;;;;;;;22.28;65.97;99777.09;2075133;28;20060;-48
2022/10/28 01:02:50;;;;;;;5.50;3.30;;;;;;;22.28;66.06;99777.91;2073576;28;20616;-49
2022/10/28 01:03:51;;;;;;;10.20;4.63;;;;;;;22.29;65.98;99784.19;2075385;28;20049;-49
2022/10/28 01:04:55;;;;;;;6.95;4.03;;;;;;;22.29;65.82;99782.31;2072739;28;20055;-50
2022/10/28 01:05:57;;;;;;;5.05;3.42;;;;;;;22.27;65.91;99775.44;2075045;28;20049;-49
2022/10/28 01:07:00;;;;;;;5.85;3.83;;;;;;;22.27;65.98;99775.44;2066493;28;23654;-49
2022/10/28 01:08:02;;;;;;;5.70;4.07;;;;;;;22.28;66.03;99777.09;2074426;28;20048;-48
2022/10/28 01:09:04;;;;;;;7.20;4.70;;;;;;;22.28;66.06;99772.50;2071946;28;20053;-51
2022/10/28 01:10:07;;;;;;;4.80;4.30;;;;;;;22.27;65.97;99775.44;2074607;28;20052;-49
2022/10/28 01:11:31;;;;;;;6.82;4.00;;;;;;;22.24;65.98;99773.13;2075537;28;20055;-49
2022/10/28 01:12:40;;;;;;;5.05;3.50;;;;;;;22.23;65.97;99769.59;2074628;28;20552;-49
2022/10/28 01:13:53;;;;;;;7.40;3.63;;;;;;;22.25;66.14;99774.78;2074485;28;20533;-50
2022/10/28 01:15:07;;;;;;;4.53;3.80;;;;;;;22.24;65.99;99773.13;2073508;28;20364;-49
2022/10/28 01:16:23;;;;;;;5.22;4.07;;;;;;;22.24;65.98;99773.13;2076014;28;20159;-50
2022/10/28 01:17:35;;;;;;;8.50;4.47;;;;;;;22.23;66.01;99764.19;2065553;28;20058;-48
2022/10/28 01:18:46;;;;;;;4.85;4.35;;;;;;;22.23;65.92;99769.59;2069512;28;20060;-50
2022/10/28 01:20:25;;;;;;;7.70;4.32;;;;;;;22.23;66.18;99766.03;2073450;28;20672;-50
2022/10/28 01:22:03;;;;;;;6.45;4.10;;;;;;;22.19;66.10;99772.91;2071841;28;20057;-47
2022/10/28 01:23:12;;;;;;;4.75;3.22;;;;;;;22.19;66.17;99762.09;2069791;28;20049;-49
2022/10/28 01:24:28;;;;;;;4.78;3.47;;;;;;;22.21;66.15;99765.44;2070860;28;20042;-51
2022/10/28 01:26:06;;;;;;;7.35;3.65;;;;;;;22.19;66.21;99762.09;2075287;28;20072;-49
2022/10/28 01:27:28;;;;;;;8.13;3.65;;;;;;;22.18;66.22;99763.97;2072284;28;20037;-48
2022/10/28 01:28:41;;;;;;;;;;;;;;;22.06;66.55;99771.75;2074238;28;20111;-50
2022/10/28 01:30:02;;;;;;;4.20;3.65;;;;;;;22.11;66.51;99765.75;2074779;28;19932;-48
2022/10/28 01:31:27;;;;;;;6.63;3.58;;;;;;;22.13;66.41;99760.16;2073953;28;20821;-50
2022/10/28 01:32:32;;;;;;;5.30;4.15;;;;;;;22.17;66.31;99767.63;2074088;28;20049;-50
2022/10/28 01:33:36;;;;;;;6.05;3.63;;;;;;;22.19;66.10;99768.31;2072072;28;20552;-51
2022/10/28 01:34:47;;;;;;;6.15;3.78;;;;;;;22.19;66.04;99762.91;2073874;28;20061;-51
2022/10/28 01:35:53;;;;;;;5.30;3.17;;;;;;;22.19;66.23;99765.63;2074672;28;20053;-52
2022/10/28 01:36:58;;;;;;;5.78;4.13;;;;;;;22.19;66.01;99760.22;2068547;28;20060;-51
2022/10/28 01:38:13;;;;;;;4.40;2.95;;;;;;;22.20;66.11;99758.34;2071990;28;21036;-51
2022/10/28 01:39:27;;;;;;;6.45;3.40;;;;;;;22.18;66.12;99761.25;2072203;28;20037;-51
2022/10/28 01:40:34;;;;;;;4.35;3.45;;;;;;;22.20;65.84;99763.75;2072434;28;20646;-51
2022/10/28 01:41:43;;;;;;;7.68;3.40;;;;;;;22.21;65.86;99760.03;2068895;28;20054;-51
2022/10/28 01:42:53;;;;;;;6.32;3.65;;;;;;;22.20;66.12;99752.94;2068762;28;20053;-52
2022/10/28 01:44:01;;;;;;;4.13;3.43;;;;;;;22.19;65.97;99759.38;2069530;28;20058;-49
2022/10/28 01:45:12;;;;;;;7.22;4.25;;;;;;;22.20;65.96;99755.63;2072771;28;20287;-51
2022/10/28 01:46:21;;;;;;;9.10;3.92;;;;;;;22.21;66.03;99754.63;2072802;28;20096;-50
2022/10/28 01:47:26;;;;;;;6.68;3.60;;;;;;;22.20;66.05;99747.53;2070924;28;20049;-50
2022/10/28 01:48:35;;;;;;;5.13;3.53;;;;;;;22.20;66.05;99750.22;2069371;28;20582;-53
2022/10/28 01:49:41;;;;;;;6.22;3.88;;;;;;;22.20;66.08;99750.22;2072745;28;20053;-49
2022/10/28 01:50:51;;;;;;;6.78;4.50;;;;;;;22.19;66.15;99748.56;2070983;28;20053;-48
2022/10/28 01:51:55;;;;;;;4.55;3.10;;;;;;;22.19;66.09;99748.56;2071628;28;20061;-49
2022/10/28 01:53:01;;;;;;;5.07;3.85;;;;;;;22.21;65.99;99754.63;2073745;28;20080;-51
2022/10/28 01:54:06;;;;;;;4.25;3.70;;;;;;;22.20;65.86;99748.34;2072570;28;20426;-50
2022/10/28 01:55:15;;;;;;;5.55;3.33;;;;;;;22.21;65.98;99749.22;2073516;28;20046;-50
2022/10/28 01:56:20;;;;;;;5.20;3.60;;;;;;;22.20;66.12;99751.06;2073630;28;20053;-52
2022/10/28 01:57:23;;;;;;;5.25;3.72;;;;;;;22.22;65.93;99750.88;2074673;28;20707;-51
2022/10/28 01:58:28;;;;;;;4.93;3.47;;;;;;;22.23;66.03;99747.97;2072459;28;20053;-51
2022/10/28 01:59:32;;;;;;;4.82;3.65;;;;;;;22.22;65.87;99748.16;2075473;28;20132;-49
2022/10/28 02:00:34;;;;;;;4.20;3.60;;;;;;;22.21;66.01;99744.63;2074474;28;20048;-49
2022/10/28 02:01:37;;;;;;;7.68;4.43;;;;;;;22.22;65.98;99750.88;2075214;28;20057;-51
2022/10/28 02:02:39;;;;;;;4.72;3.28;;;;;;;22.21;65.98;99743.81;2074475;28;20053;-50
2022/10/28 02:03:41;;;;;;;5.93;4.13;;;;;;;22.20;65.95;99745.66;2074787;28;20666;-51
2022/10/28 02:04:42;;;;;;;6.25;3.25;;;;;;;22.21;65.82;99738.41;2066453;28;20481;-49
2022/10/28 02:05:46;;;;;;;5.72;3.88;;;;;;;22.22;65.90;99745.47;2075305;28;20049;-48
2022/10/28 02:06:51;;;;;;;4.75;2.80;;;;;;;22.21;65.94;99739.22;2072809;28;20049;-50
2022/10/28 02:08:00;;;;;;;6.97;4.18;;;;;;;22.21;65.73;99741.09;2070852;28;20045;-50
2022/10/28 02:09:14;;;;;;;5.95;4.47;;;;;;;22.19;65.87;99744.00;2074009;28;20109;-48
2022/10/28 02:10:22;;;;;;;3.70;3.33;;;;;;;22.20;66.04;99742.13;2072080;28;20084;-51
2022/10/28 02:11:42;;;;;;;4.78;3.50;;;;;;;22.17;66.04;99747.91;2075470;28;20387;-51
2022/10/28 02:12:47;;;;;;;6.30;3.63;;;;;;;22.18;66.00;99744.22;2075664;28;20050;-50
2022/10/28 02:13:57;;;;;;;5.32;3.67;;;;;;;22.18;65.89;99741.50;2076045;28;20069;-48
2022/10/28 02:15:32;;;;;;;4.20;3.30;;;;;;;22.16;66.01;99748.94;2076480;28;20061;-50
2022/10/28 02:16:43;;;;;;;5.80;3.55;;;;;;;22.16;66.27;99746.25;2071258;28;20060;-51
2022/10/28 02:17:59;;;;;;;7.18;3.38;;;;;;;22.15;66.02;99742.72;2072926;28;20045;-50
2022/10/28 02:19:07;;;;;;;6.43;4.07;;;;;;;22.16;66.10;99741.66;2076324;28;20140;-51
2022/10/28 02:20:18;;;;;;;5.53;3.78;;;;;;;22.17;65.95;99742.50;2075504;28;20119;-50
2022/10/28 02:21:28;;;;;;;5.85;3.38;;;;;;;22.17;65.77;99742.50;2072617;28;20050;-50
2022/10/28 02:22:43;;;;;;;6.43;4.95;;;;;;;22.17;66.00;99739.78;2072677;28;20275;-50
2022/10/28 02:23:51;;;;;;;4.63;3.33;;;;;;;22.15;65.81;99737.31;2075206;28;20076;-49
2022/10/28 02:25:00;;;;;;;7.65;4.03;;;;;;;22.17;65.63;99739.78;2075345;28;20049;-49
2022/10/28 02:26:09;;;;;;;6.25;3.60;;;;;;;22.14;65.97;99738.31;2075482;28;20547;-49
2022/10/28 02:27:17;;;;;;;5.10;3.53;;;;;;;22.15;66.07;99741.84;2075228;28;20073;-49
2022/10/28 02:28:24;;;;;;;6.35;3.50;;;;;;;22.15;65.95;99741.84;2075640;28;20052;-48
2022/10/28 02:29:32;;;;;;;6.30;3.38;;;;;;;22.16;65.91;99738.13;2076609;28;20495;-49
2022/10/28 02:30:40;;;;;;;5.10;3.53;;;;;;;22.16;65.94;99740.84;2075307;28;20045;-50
2022/10/28 02:31:49;;;;;;;5.28;3.40;;;;;;;22.16;65.80;99740.84;2071021;28;20062;-52
2022/10/28 02:32:52;;;;;;;5.38;3.55;;;;;;;22.16;65.79;99738.97;2066868;28;20068;-49
2022/10/28 02:34:03;;;;;;;3.97;3.45;;;;;;;22.17;65.98;99731.69;2067320;28;21185;-49
2022/10/28 02:35:11;;;;;;;4.95;4.28;;;;;;;22.15;65.99;99742.72;2076427;28;20033;-48
2022/10/28 02:36:16;;;;;;;5.72;3.63;;;;;;;22.16;65.71;99740.84;2076558;28;20045;-49
2022/10/28 02:37:22;;;;;;;4.00;2.90;;;;;;;22.17;65.99;99737.09;2070637;28;20413;-50
2022/10/28 02:38:27;;;;;;;7.90;3.78;;;;;;;22.16;65.82;99732.72;2073416;28;20048;-51
2022/10/28 02:39:35;;;;;;;5.97;3.65;;;;;;;22.16;65.88;99730.03;2076530;28;20041;-50
2022/10/28 02:40:39;;;;;;;5.50;3.53;;;;;;;22.18;65.93;99738.81;2075945;28;20067;-48
2022/10/28 02:41:45;;;;;;;4.22;3.47;;;;;;;22.18;65.68;99744.22;2075019;28;20065;-51
2022/10/28 02:42:50;;;;;;;6.38;3.33;;;;;;;22.17;65.79;99742.50;2071744;28;20413;-50
2022/10/28 02:43:53;;;;;;;6.70;3.70;;;;;;;22.15;65.89;99734.59;2073839;28;20049;-49
2022/10/28 02:45:00;;;;;;;6.40;3.78;;;;;;;22.16;65.76;99736.25;2075358;28;20103;-51
2022/10/28 02:46:03;;;;;;;4.45;3.60;;;;;;;22.18;65.85;99741.50;2074903;28;20144;-50
2022/10/28 02:47:11;;;;;;;4.97;3.20;;;;;;;22.15;65.85;99737.31;2075391;28;20053;-50
2022/10/28 02:48:21;;;;;;;6.40;3.30;;;;;;;22.17;65.85;99739.78;2073919;28;20061;-50
2022/10/28 02:49:24;;;;;;;5.75;3.63;;;;;;;22.16;65.99;99738.13;2075547;28;20129;-49
2022/10/28 02:50:31;;;;;;;5.25;3.70;;;;;;;22.16;65.91;99735.44;2075309;28;20045;-51
2022/10/28 02:51:37;;;;;;;6.65;4.38;;;;;;;22.17;65.87;99737.09;2072813;28;20038;-54
2022/10/28 02:52:42;;;;;;;5.53;3.33;;;;;;;22.17;65.83;99737.09;2072473;28;20057;-50
2022/10/28 02:53:56;;;;;;;5.00;3.60;;;;;;;22.13;65.99;99735.84;2073993;28;20084;-49
2022/10/28 02:54:59;;;;;;;4.65;3.45;;;;;;;22.15;65.74;99736.44;2074745;28;20050;-48
2022/10/28 02:56:04;;;;;;;3.67;3.20;;;;;;;22.16;65.76;99740.84;2076633;28;20063;-49
2022/10/28 02:57:08;;;;;;;5.10;2.85;;;;;;;22.16;65.66;99735.44;2075378;28;20045;-50
2022/10/28 02:58:11;;;;;;;3.88;2.90;;;;;;;22.16;65.85;99732.72;2075273;28;20053;-49
2022/10/28 02:59:12;;;;;;;5.60;3.67;;;;;;;22.19;65.67;99735.06;2075928;28;20046;-49
2022/10/28 03:00:16;;;;;;;3.42;3.05;;;;;;;22.14;65.74;99727.50;2075908;28;20041;-48
2022/10/28 03:01:17;;;;;;;4.55;3.30;;;;;;;22.16;65.66;99738.97;2073935;28;20633;-50
2022/10/28 03:02:20;;;;;;;5.80;3.55;;;;;;;22.17;65.81;99731.69;2072821;28;20060;-51
2022/10/28 03:03:21;;;;;;;5.88;3.75;;;;;;;22.16;65.83;99730.84;2073637;28;20049;-49
2022/10/28 03:04:23;;;;;;;8.10;4.07;;;;;;;22.15;65.78;99731.91;2072995;28;20042;-49
2022/10/28 03:05:24;;;;;;;6.30;4.10;;;;;;;22.14;65.73;99726.69;2074224;28;20041;-51
2022/10/28 03:06:26;;;;;;;5.30;3.83;;;;;;;22.15;65.65;99733.75;2075596;28;20067;-49
2022/10/28 03:07:26;;;;;;;4.10;3.70;;;;;;;22.16;65.70;99732.72;2070708;28;20073;-51
2022/10/28 03:08:28;;;;;;;5.65;3.40;;;;;;;22.15;65.73;99731.03;2071584;28;20048;-47
2022/10/28 03:09:29;;;;;;;4.47;3.78;;;;;;;22.14;65.84;99729.38;2075639;28;20076;-50
2022/10/28 03:10:31;;;;;;;5.82;3.40;;;;;;;22.15;65.73;99733.75;2074893;28;20108;-51
2022/10/28 03:11:32;;;;;;;6.85;3.67;;;;;;;22.15;65.60;99739.16;2073925;28;20432;-50
2022/10/28 03:12:33;;;;;;;5.03;3.17;;;;;;;22.15;65.60;99736.44;2075027;28;20120;-50
2022/10/28 03:13:34;;;;;;;5.72;3.58;;;;;;;22.14;65.65;99735.63;2075307;28;20544;-52
2022/10/28 03:14:36;;;;;;;5.43;3.45;;;;;;;22.15;65.65;99736.44;2074545;28;20080;-53
2022/10/28 03:15:37;;;;;;;3.80;3.28;;;;;;;22.14;65.62;99737.50;2076779;28;20045;-49
2022/10/28 03:16:39;;;;;;;4.45;4.00;;;;;;;22.16;65.77;99741.66;2075317;28;20616;-51
2022/10/28 03:17:41;;;;;;;5.82;3.83;;;;;;;22.16;65.77;99743.53;2075599;28;20402;-50
2022/10/28 03:18:43;;;;;;;5.28;3.55;;;;;;;22.15;65.69;99736.44;2071375;28;20128;-48
2022/10/28 03:19:44;;;;;;;5.03;3.95;;;;;;;22.14;65.63;99734.78;2072386;28;20745;-52
2022/10/28 03:20:47;;;;;;;5.22;3.88;;;;;;;22.12;65.76;99740.41;2073636;28;20049;-50
2022/10/28 03:21:47;;;;;;;4.75;3.38;;;;;;;22.14;65.78;99737.50;2074687;28;20059;-51
2022/10/28 03:22:49;;;;;;;5.55;3.60;;;;;;;22.13;65.77;99742.06;2069876;28;20141;-52
2022/10/28 03:23:50;;;;;;;5.18;3.15;;;;;;;22.14;65.71;99735.63;2070853;28;20049;-49
2022/10/28 03:24:52;;;;;;;6.28;3.85;;;;;;;22.12;65.74;99739.56;2073059;28;20053;-51
2022/10/28 03:25:52;;;;;;;5.78;4.00;;;;;;;22.12;65.71;99739.56;2075595;28;20053;-49
2022/10/28 03:26:54;;;;;;;5.38;3.22;;;;;;;22.13;65.66;99739.38;2072115;28;20619;-50
2022/10/28 03:27:55;;;;;;;4.75;3.83;;;;;;;22.14;65.73;99740.19;2074959;28;20045;-49
2022/10/28 03:28:57;;;;;;;4.47;3.22;;;;;;;22.14;65.80;99741.03;2075136;28;20140;-49
2022/10/28 03:29:57;;;;;;;3.85;3.35;;;;;;;22.13;65.76;99741.25;2075519;28;20835;-49
2022/10/28 03:30:59;;;;;;;5.78;4.43;;;;;;;22.12;65.56;99737.72;2074816;28;20052;-50
2022/10/28 03:32:00;;;;;;;4.72;3.50;;;;;;;22.13;65.64;99746.66;2076188;28;20567;-51
2022/10/28 03:33:03;;;;;;;4.72;3.10;;;;;;;22.13;65.52;99742.06;2075389;28;20227;-49
2022/10/28 03:34:04;;;;;;;6.47;3.45;;;;;;;22.14;65.64;99745.59;2076335;28;20053;-49
2022/10/28 03:35:07;;;;;;;7.03;3.47;;;;;;;22.13;65.63;99744.78;2074259;28;20073;-51
2022/10/28 03:36:09;;;;;;;4.65;3.28;;;;;;;22.12;65.60;99739.56;2075861;28;20045;-49
2022/10/28 03:37:10;;;;;;;4.45;3.85;;;;;;;22.11;65.68;99743.28;2072983;28;20053;-52
2022/10/28 03:38:12;;;;;;;7.22;3.85;;;;;;;22.13;65.61;99741.25;2071340;28;20137;-50
2022/10/28 03:39:12;;;;;;;4.13;3.35;;;;;;;22.11;65.69;99743.28;2068442;28;20149;-50
2022/10/28 03:40:14;;;;;;;5.38;3.65;;;;;;;22.13;65.76;99746.66;2075181;28;20041;-50
2022/10/28 03:41:15;;;;;;;5.57;3.30;;;;;;;22.13;65.71;99741.25;2074640;28;20045;-48
2022/10/28 03:42:17;;;;;;;4.20;3.25;;;;;;;22.12;65.72;99742.25;2072565;28;20051;-49
2022/10/28 03:43:18;;;;;;;5.78;3.85;;;;;;;22.12;65.81;99739.56;2067657;28;20130;-51
2022/10/28 03:44:20;;;;;;;5.03;3.00;;;;;;;22.11;65.64;99746.00;2074596;28;20111;-52
2022/10/28 03:45:21;;;;;;;4.30;3.63;;;;;;;22.12;65.63;99740.41;2074283;28;20045;-51
2022/10/28 03:46:22;;;;;;;4.15;3.55;;;;;;;22.12;65.68;99742.25;2074649;28;20041;-49
2022/10/28 03:47:23;;;;;;;6.38;3.28;;;;;;;22.09;65.88;99741.66;2074463;28;20509;-50
2022/10/28 03:48:26;;;;;;;6.55;2.85;;;;;;;22.12;65.64;99744.97;2075803;28;20046;-51
2022/10/28 03:49:27;;;;;;;5.97;3.97;;;;;;;22.09;65.68;99740.78;2074783;28;20045;-49
2022/10/28 03:50:29;;;;;;;6.20;3.80;;;;;;;22.08;65.57;99742.66;2075449;28;20055;-53
2022/10/28 03:51:29;;;;;;;5.97;3.60;;;;;;;22.09;65.71;99736.25;2071499;28;20412;-51
2022/10/28 03:52:31;;;;;;;4.13;3.72;;;;;;;22.12;65.56;99739.56;2071996;28;20045;-49
2022/10/28 03:53:32;;;;;;;5.82;4.05;;;;;;;22.11;65.68;99748.69;2074390;28;20647;-50
2022/10/28 03:54:34;;;;;;;4.82;3.55;;;;;;;22.12;65.70;99744.97;2074630;28;20049;-50
2022/10/28 03:55:34;;;;;;;5.90;3.20;;;;;;;22.11;65.61;99735.19;2075357;28;20046;-49
2022/10/28 03:56:39;;;;;;;5.60;3.10;;;;;;;22.09;65.74;99746.19;2075862;28;20623;-49
2022/10/28 03:57:40;;;;;;;3.45;3.03;;;;;;;22.08;65.83;99741.81;2076077;28;20061;-53
2022/10/28 03:58:41;;;;;;;6.32;3.38;;;;;;;22.09;65.52;99735.38;2074475;28;20049;-51
2022/10/28 03:59:42;;;;;;;4.68;3.35;;;;;;;22.09;65.65;99738.94;2067537;28;20057;-52
2022/10/28 04:00:44;;;;;;;7.68;3.90;;;;;;;22.10;65.69;99737.06;2075452;28;20053;-48
2022/10/28 04:01:45;;;;;;;5.13;3.47;;;;;;;22.08;65.59;99739.97;2073430;28;20460;-52
2022/10/28 04:02:49;;;;;;;5.20;3.53;;;;;;;22.11;65.65;99743.28;2076339;28;20053;-50
2022/10/28 04:03:52;;;;;;;4.93;3.90;;;;;;;22.08;65.73;99739.97;2074553;28;20046;-50
2022/10/28 04:04:54;;;;;;;4.78;3.42;;;;;;;22.09;65.64;99738.94;2074676;28;20519;-51
2022/10/28 04:05:55;;;;;;;5.65;3.78;;;;;;;22.10;65.61;99737.06;2069476;28;20519;-51
2022/10/28 04:06:56;;;;;;;;;;;;;;;21.99;65.85;99732.22;2075676;28;20059;-51
2022/10/28 04:07:57;;;;;;;;;;;;;;;21.91;66.36;99732.38;2071573;28;20377;-51
2022/10/28 04:08:58;;;;;;;5.93;4.10;;;;;;;21.96;66.28;99735.34;2075273;28;19925;-49
2022/10/28 04:09:59;;;;;;;4.57;3.30;;;;;;;21.99;66.11;99733.06;2074542;28;20311;-49
2022/10/28 04:11:01;;;;;;;5.70;3.88;;;;;;;22.04;65.95;99738.69;2074212;28;20043;-51
2022/10/28 04:12:02;;;;;;;4.05;3.30;;;;;;;22.06;65.69;99733.94;2074700;28;20060;-51
2022/10/28 04:13:05;;;;;;;7.35;3.42;;;;;;;22.07;65.74;99732.91;2075454;28;20045;-52
2022/10/28 04:14:06;;;;;;;8.30;3.10;;;;;;;22.06;65.62;99731.25;2073628;28;20045;-50
2022/10/28 04:15:08;;;;;;;5.63;3.88;;;;;;;22.07;65.72;99738.31;2074127;28;20542;-52
2022/10/28 04:16:09;;;;;;;4.65;4.13;;;;;;;22.05;65.82;99732.25;2074341;28;20045;-50
2022/10/28 04:17:11;;;;;;;4.55;3.75;;;;;;;22.08;65.78;99737.25;2075480;28;20046;-49
2022/10/28 04:18:13;;;;;;;4.97;3.25;;;;;;;22.08;65.76;99734.56;2074409;28;20037;-50
2022/10/28 04:19:15;;;;;;;5.32;3.65;;;;;;;22.08;65.77;99729.16;2075683;28;20524;-49
2022/10/28 04:20:17;;;;;;;6.30;3.40;;;;;;;22.05;65.71;99734.94;2075598;28;20045;-51
2022/10/28 04:21:18;;;;;;;5.75;3.95;;;;;;;22.04;65.86;99729.78;2067900;28;20054;-51
2022/10/28 04:22:19;;;;;;;;;;;;;;;21.94;66.02;99732.81;2072680;28;20045;-50
2022/10/28 04:23:21;;;;;;;;;;;;;;;21.89;66.38;99745.25;2073457;28;19936;-50
2022/10/28 04:24:22;;;;;;;4.32;3.47;;;;;;;21.94;66.22;99740.09;2073785;28;19932;-50
2022/10/28 04:25:25;;;;;;;5.82;3.10;;;;;;;21.99;65.87;99734.94;2074813;28;20068;-49
2022/10/28 04:26:26;;;;;;;5.60;3.65;;;;;;;22.02;65.78;99729.94;2073137;28;20049;-49
2022/10/28 04:27:27;;;;;;;4.53;3.38;;;;;;;22.02;65.81;99740.75;2073255;28;20049;-52
2022/10/28 04:28:29;;;;;;;6.55;3.85;;;;;;;22.03;65.72;99742.41;2073916;28;20045;-49
2022/10/28 04:29:30;;;;;;;4.25;3.65;;;;;;;22.05;65.70;99744.94;2073799;28;20573;-50
2022/10/28 04:30:32;;;;;;;4.45;3.63;;;;;;;22.04;65.82;99744.09;2074294;28;20042;-49
2022/10/28 04:31:33;;;;;;;4.18;3.63;;;;;;;22.05;65.57;99742.22;2072967;28;20056;-49
2022/10/28 04:32:34;;;;;;;4.57;3.42;;;;;;;22.05;65.62;99745.75;2074222;28;20048;-48
2022/10/28 04:33:35;;;;;;;5.57;3.28;;;;;;;22.05;65.82;99742.22;2069632;28;20054;-51
2022/10/28 04:34:38;;;;;;;3.88;3.33;;;;;;;22.04;65.71;99741.41;2072121;28;20706;-49
2022/10/28 04:35:41;;;;;;;10.75;3.50;;;;;;;22.04;65.78;99741.41;2071205;28;20049;-52
2022/10/28 04:36:43;;;;;;;5.30;3.97;;;;;;;22.04;65.55;99738.69;2068685;28;20053;-53
2022/10/28 04:37:44;;;;;;;5.20;3.83;;;;;;;22.05;65.70;99745.75;2068989;28;20053;-50
2022/10/28 04:38:46;;;;;;;7.10;4.20;;;;;;;22.05;65.69;99745.75;2072438;28;20050;-50
2022/10/28 04:39:47;;;;;;;5.57;3.65;;;;;;;22.03;65.78;99742.41;2075243;28;20782;-50
2022/10/28 04:40:49;;;;;;;4.63;3.55;;;;;;;22.04;65.64;99749.50;2074402;28;20221;-48
2022/10/28 04:41:50;;;;;;;7.28;3.58;;;;;;;22.06;65.67;99752.84;2068267;28;20049;-49
2022/10/28 04:42:51;;;;;;;5.40;3.45;;;;;;;22.04;65.65;99746.81;2067775;28;21650;-52
2022/10/28 04:43:54;;;;;;;5.47;4.13;;;;;;;22.03;66.00;99753.22;2070884;28;20057;-51
2022/10/28 04:44:56;;;;;;;5.80;3.53;;;;;;;22.04;65.83;99743.28;2073475;28;20099;-50
2022/10/28 04:45:57;;;;;;;3.63;3.10;;;;;;;22.04;65.49;99744.09;2072732;28;20911;-52
2022/10/28 04:46:59;;;;;;;4.50;3.35;;;;;;;22.04;65.63;99744.09;2075180;28;20083;-49
2022/10/28 04:48:00;;;;;;;5.32;2.83;;;;;;;22.03;65.95;99745.13;2071935;28;21025;-51
2022/10/28 04:49:02;;;;;;;4.55;3.50;;;;;;;22.03;65.82;99747.81;2073325;28;21204;-50
2022/10/28 04:50:05;;;;;;;7.47;3.50;;;;;;;22.04;65.73;99741.41;2073531;28;20624;-48
2022/10/28 04:51:07;;;;;;;4.47;3.47;;;;;;;22.04;65.67;99751.38;2061788;28;20045;-52
2022/10/28 04:52:08;;;;;;;6.53;3.72;;;;;;;22.03;65.60;99753.22;2068949;28;20053;-49
2022/10/28 04:53:10;;;;;;;3.95;2.95;;;;;;;22.05;65.56;99745.75;2073124;28;20057;-49
2022/10/28 04:54:11;;;;;;;5.32;3.20;;;;;;;22.04;65.60;99754.09;2074040;28;20559;-50
2022/10/28 04:55:13;;;;;;;6.07;3.60;;;;;;;22.02;65.90;99751.56;2075190;28;20041;-50
2022/10/28 04:56:14;;;;;;;5.50;2.97;;;;;;;22.04;65.64;99744.09;2075354;28;20049;-50
2022/10/28 04:57:15;;;;;;;8.75;4.13;;;;;;;22.03;65.80;99755.91;2068624;28;20045;-50
2022/10/28 04:58:16;;;;;;;4.88;3.28;;;;;;;22.03;65.79;99747.81;2075339;28;20056;-52
2022/10/28 04:59:18;;;;;;;6.30;3.53;;;;;;;22.04;65.59;99751.38;2073014;28;20048;-52
2022/10/28 05:00:19;;;;;;;4.72;3.13;;;;;;;22.02;65.76;99746.16;2073539;28;20551;-52
2022/10/28 05:01:20;;;;;;;4.68;3.53;;;;;;;22.02;65.64;99746.16;2070016;28;20037;-51
2022/10/28 05:02:22;;;;;;;3.53;3.00;;;;;;;22.03;65.46;99741.59;2073513;28;20049;-52
2022/10/28 05:03:24;;;;;;;6.53;3.72;;;;;;;22.02;65.83;99751.56;2070000;28;20133;-52
2022/10/28 05:04:24;;;;;;;3.67;3.10;;;;;;;22.02;65.76;99756.97;2075879;28;20231;-52